Time;durP1;ratioP1;P1;durP2;ratioP2;P2;SDS_P1;SDS_P2;PMS_P1;PMS_P2;Temp;Humidity;BMP_temperature;BMP_pressure;BME280_temperature;BME280_humidity;BME280_pressure;Samples;Min_cycle;Max_cycle;Signal;HPM_P1;HPM_P2
2022/01/29 00:00:22;;;;;;;14.68;5.95;;;1.90;77.50;;;;;;5534701;23;21445;-80
2022/01/29 00:02:51;;;;;;;12.43;5.25;;;1.80;77.80;;;;;;5389680;23;20055;-81
2022/01/29 00:05:16;;;;;;;11.38;5.90;;;1.80;78.00;;;;;;5021495;23;20056;-80
2022/01/29 00:15:28;;;;;;;;;;;1.70;77.70;;;;;;5140253;23;20060;-80
2022/01/29 00:17:53;;;;;;;;;;;1.60;77.70;;;;;;5035675;28;19905;-80
2022/01/29 00:20:19;;;;;;;11.23;4.77;;;1.60;77.80;;;;;;5053240;28;19912;-81
2022/01/29 00:23:32;;;;;;;11.10;4.88;;;1.70;77.90;;;;;;5053620;28;20047;-82
2022/01/29 00:28:21;;;;;;;12.07;4.70;;;1.70;77.60;;;;;;5283662;23;20109;-82
2022/01/29 00:30:47;;;;;;;14.45;5.20;;;1.60;77.60;;;;;;5032488;28;20029;-81
2022/01/29 00:36:26;;;;;;;11.75;4.75;;;1.60;77.40;;;;;;5245586;23;20049;-81
2022/01/29 00:41:19;;;;;;;7.45;4.38;;;1.70;77.30;;;;;;5263057;23;20055;-81
2022/01/29 00:43:45;;;;;;;10.27;4.07;;;1.70;77.10;;;;;;5075060;23;20137;-81
2022/01/29 00:46:13;;;;;;;11.05;4.53;;;1.50;77.00;;;;;;4976151;28;20483;-81
2022/01/29 00:48:38;;;;;;;7.38;2.88;;;1.50;77.50;;;;;;5066343;23;20037;-82
2022/01/29 00:53:39;;;;;;;5.97;2.88;;;1.50;76.50;;;;;;5140970;23;20057;-81
2022/01/29 00:56:06;;;;;;;6.90;3.25;;;1.60;76.40;;;;;;5015114;28;20025;-80
2022/01/29 01:01:07;;;;;;;;;;;1.70;76.20;;;;;;3502060;23;20120;-80
2022/01/29 01:03:32;;;;;;;;;;;1.70;76.40;;;;;;5628503;23;19956;-79
2022/01/29 01:08:33;;;;;;;7.53;2.97;;;1.70;76.40;;;;;;5434535;23;20021;-80
2022/01/29 01:10:59;;;;;;;6.40;2.45;;;1.60;76.30;;;;;;5005830;23;20073;-79
2022/01/29 01:13:25;;;;;;;4.78;2.50;;;1.70;76.50;;;;;;5034495;28;20072;-79
2022/01/29 01:19:12;;;;;;;7.50;2.53;;;1.60;76.00;;;;;;5357859;23;20044;-81
2022/01/29 01:21:38;;;;;;;10.70;3.08;;;1.60;76.10;;;;;;5038686;28;20074;-80
2022/01/29 01:24:03;;;;;;;7.93;3.28;;;1.60;76.20;;;;;;5056309;28;20040;-80
2022/01/29 01:31:56;;;;;;;;;;;1.60;76.10;;;;;;5526770;23;20777;-80
2022/01/29 01:34:24;;;;;;;;;;;1.60;75.70;;;;;;4999320;28;19960;-80
2022/01/29 01:36:55;;;;;;;5.20;2.97;;;1.60;75.70;;;;;;5269735;23;19921;-80
2022/01/29 01:42:35;;;;;;;8.40;3.10;;;1.50;75.40;;;;;;5538218;23;20052;-79
2022/01/29 01:45:01;;;;;;;9.15;3.15;;;1.60;75.50;;;;;;5035780;28;20034;-80
2022/01/29 01:50:22;;;;;;;8.18;3.78;;;1.50;75.20;;;;;;5060929;23;20053;-80
2022/01/29 01:52:49;;;;;;;6.45;2.92;;;1.50;75.90;;;;;;5037837;28;20163;-81
2022/01/29 01:55:15;;;;;;;4.15;2.47;;;1.50;76.00;;;;;;5055745;28;20067;-80
2022/01/29 01:57:41;;;;;;;6.60;2.78;;;1.50;76.20;;;;;;5055660;28;20029;-81
2022/01/29 02:13:44;;;;;;;;;;;1.80;74.70;;;;;;5126247;23;20108;-79
2022/01/29 02:21:27;;;;;;;7.68;3.20;;;1.90;74.40;;;;;;5610779;23;20053;-80
2022/01/29 02:23:53;;;;;;;7.53;3.30;;;1.80;74.60;;;;;;5394970;23;20046;-81
2022/01/29 02:31:30;;;;;;;5.85;3.67;;;1.90;75.00;;;;;;5537501;23;20062;-80
2022/01/29 02:33:58;;;;;;;7.45;3.72;;;1.90;75.00;;;;;;4978219;28;20026;-79
2022/01/29 02:36:24;;;;;;;5.30;3.22;;;2.00;74.90;;;;;;5568409;23;20032;-81
2022/01/29 02:38:50;;;;;;;5.13;2.97;;;2.10;75.00;;;;;;5036959;28;20485;-81
2022/01/29 02:41:16;;;;;;;9.73;3.20;;;2.10;74.80;;;;;;5055198;28;20028;-81
2022/01/29 02:46:21;;;;;;;6.70;2.80;;;2.20;74.50;;;;;;5054592;28;20390;-81
2022/01/29 02:49:12;;;;;;;7.65;3.15;;;2.20;74.20;;;;;;5054866;28;20096;-79
2022/01/29 02:52:02;;;;;;;6.93;3.60;;;2.10;74.20;;;;;;5036873;28;20164;-81
2022/01/29 02:54:28;;;;;;;8.05;4.00;;;2.00;74.30;;;;;;5012909;23;20058;-81
2022/01/29 02:56:54;;;;;;;6.45;3.30;;;2.10;74.40;;;;;;4994116;28;20402;-81
2022/01/29 03:02:34;;;;;;;8.35;3.80;;;2.10;74.50;;;;;;5040432;23;20057;-81
2022/01/29 03:05:01;;;;;;;7.15;2.95;;;2.10;74.30;;;;;;5034309;28;20068;-80
2022/01/29 03:13:41;;;;;;;8.73;3.78;;;2.20;74.10;;;;;;5027719;23;20410;-81
2022/01/29 03:16:07;;;;;;;6.18;3.15;;;2.20;73.90;;;;;;4987207;28;20439;-81
2022/01/29 03:21:16;;;;;;;4.95;2.38;;;2.20;73.90;;;;;;5124155;23;20046;-80
2022/01/29 03:27:40;;;;;;;3.28;1.92;;;2.10;74.10;;;;;;5360281;23;20056;-81
2022/01/29 03:30:07;;;;;;;4.85;1.98;;;2.10;74.40;;;;;;5003860;28;20071;-80
2022/01/29 03:32:33;;;;;;;3.72;2.13;;;2.10;74.50;;;;;;5380548;23;20088;-80
2022/01/29 03:37:34;;;;;;;5.40;2.30;;;2.10;74.10;;;;;;5157500;23;20059;-78
2022/01/29 03:40:03;;;;;;;5.55;2.78;;;2.10;74.10;;;;;;5261691;23;20053;-80
2022/01/29 03:42:32;;;;;;;3.78;2.17;;;2.20;73.80;;;;;;5020618;28;20048;-79
2022/01/29 03:45:05;;;;;;;4.85;1.98;;;2.10;73.70;;;;;;5035607;28;20057;-81
2022/01/29 03:47:31;;;;;;;5.57;2.28;;;2.20;73.60;;;;;;5053575;28;20029;-80
2022/01/29 03:57:57;;;;;;;2.95;1.80;;;2.20;73.40;;;;;;5147553;23;20057;-79
2022/01/29 04:00:23;;;;;;;4.15;1.80;;;2.30;73.20;;;;;;5035486;28;20029;-79
2022/01/29 04:02:48;;;;;;;4.57;2.30;;;2.30;72.90;;;;;;5035278;28;20056;-80
2022/01/29 04:05:14;;;;;;;7.65;2.85;;;2.30;72.80;;;;;;5053053;28;20477;-79
2022/01/29 04:07:41;;;;;;;3.92;1.67;;;2.20;72.80;;;;;;5053324;28;20025;-80
2022/01/29 04:10:07;;;;;;;3.42;1.45;;;2.20;72.90;;;;;;5053024;28;20017;-81
2022/01/29 04:12:39;;;;;;;2.30;1.50;;;2.20;72.80;;;;;;5054048;28;20032;-81
2022/01/29 04:15:05;;;;;;;5.30;1.52;;;2.20;72.20;;;;;;5035112;28;20087;-80
2022/01/29 04:17:30;;;;;;;3.60;1.63;;;2.20;71.50;;;;;;5053200;28;20028;-80
2022/01/29 04:19:56;;;;;;;3.70;1.55;;;2.20;71.10;;;;;;5035073;28;20025;-81
2022/01/29 04:22:22;;;;;;;4.68;2.08;;;2.30;71.20;;;;;;5052878;28;20103;-82
2022/01/29 04:24:47;;;;;;;7.18;3.28;;;2.30;71.10;;;;;;5052878;28;20028;-82
2022/01/29 04:27:19;;;;;;;5.40;2.88;;;2.30;71.10;;;;;;5052797;28;20033;-81
2022/01/29 04:29:56;;;;;;;7.70;2.70;;;2.40;71.00;;;;;;5035022;28;20021;-81
2022/01/29 04:32:44;;;;;;;5.35;2.30;;;2.30;71.10;;;;;;5052829;28;20025;-80
2022/01/29 04:35:09;;;;;;;4.32;2.50;;;2.30;71.30;;;;;;5052714;28;20025;-81
2022/01/29 04:37:35;;;;;;;4.63;2.40;;;2.30;71.20;;;;;;5052413;28;20086;-80
2022/01/29 04:40:01;;;;;;;3.38;1.92;;;2.30;71.30;;;;;;5052641;28;20032;-81
2022/01/29 04:42:26;;;;;;;4.43;2.35;;;2.40;71.30;;;;;;5436054;23;20057;-80
2022/01/29 04:44:52;;;;;;;3.95;2.30;;;2.30;71.20;;;;;;5034551;28;20514;-81
2022/01/29 04:47:17;;;;;;;3.28;1.92;;;2.30;71.20;;;;;;5052624;28;20045;-81
2022/01/29 04:49:43;;;;;;;3.33;1.77;;;2.30;71.10;;;;;;5052561;28;20032;-80
2022/01/29 04:52:08;;;;;;;3.20;1.92;;;2.30;71.00;;;;;;5034782;28;20151;-81
2022/01/29 04:54:34;;;;;;;6.03;2.30;;;2.30;71.00;;;;;;5052587;28;20017;-80
2022/01/29 04:56:59;;;;;;;4.57;2.25;;;2.40;70.70;;;;;;5034687;28;20029;-81
2022/01/29 04:59:25;;;;;;;3.63;1.95;;;2.30;70.00;;;;;;5034771;28;20025;-80
2022/01/29 05:01:51;;;;;;;7.10;2.10;;;2.30;70.20;;;;;;5034749;28;20071;-81
2022/01/29 05:04:18;;;;;;;4.22;1.90;;;2.30;70.20;;;;;;5052585;28;20027;-80
2022/01/29 05:06:43;;;;;;;2.90;1.88;;;2.30;70.30;;;;;;5052468;28;20526;-80
2022/01/29 05:09:10;;;;;;;3.97;1.85;;;2.30;70.20;;;;;;5052433;28;20112;-80
2022/01/29 05:14:18;;;;;;;1.75;1.08;;;2.30;69.80;;;;;;5243966;23;20580;-80
2022/01/29 05:17:18;;;;;;;3.85;1.73;;;2.30;69.40;;;;;;5032458;28;20105;-80
2022/01/29 05:27:33;;;;;;;2.28;1.15;;;2.40;67.30;;;;;;5038771;23;20580;-79
2022/01/29 05:29:58;;;;;;;4.05;1.60;;;2.60;67.30;;;;;;5031205;28;20026;-79
2022/01/29 05:32:24;;;;;;;2.92;1.35;;;2.60;67.50;;;;;;5032437;28;20385;-80
2022/01/29 05:37:20;;;;;;;4.03;1.65;;;2.60;67.80;;;;;;5035380;23;20045;-80
2022/01/29 05:39:45;;;;;;;8.65;3.90;;;2.60;68.00;;;;;;5034223;28;20543;-80
2022/01/29 05:42:11;;;;;;;12.93;6.28;;;2.60;68.10;;;;;;5052196;28;20025;-81
2022/01/29 05:44:36;;;;;;;16.10;8.38;;;2.70;68.10;;;;;;5052345;28;20389;-81
2022/01/29 05:47:02;;;;;;;21.15;10.65;;;2.70;68.30;;;;;;5052053;28;20053;-80
2022/01/29 05:49:28;;;;;;;18.75;9.90;;;2.60;68.40;;;;;;5036918;28;20051;-81
2022/01/29 05:51:53;;;;;;;19.63;8.82;;;2.60;68.50;;;;;;5055676;28;20025;-81
2022/01/29 05:54:19;;;;;;;16.67;8.30;;;2.70;68.10;;;;;;5292467;23;20053;-81
2022/01/29 06:02:41;;;;;;;5.18;2.40;;;2.70;68.60;;;;;;5016036;28;20077;-82
2022/01/29 06:05:07;;;;;;;3.42;2.00;;;2.60;68.90;;;;;;5017566;28;20021;-82
2022/01/29 06:07:33;;;;;;;3.78;1.98;;;2.60;68.80;;;;;;5035473;28;20524;-82
2022/01/29 06:09:58;;;;;;;3.42;1.70;;;2.60;68.80;;;;;;5035411;28;20049;-81
2022/01/29 06:12:24;;;;;;;3.03;2.10;;;2.50;68.90;;;;;;5035357;28;20034;-81
2022/01/29 06:14:50;;;;;;;3.05;1.88;;;2.50;68.70;;;;;;5035498;28;20056;-80
2022/01/29 06:17:16;;;;;;;4.72;2.90;;;2.50;68.90;;;;;;5035266;28;20028;-79
2022/01/29 06:19:41;;;;;;;7.57;3.00;;;2.40;68.60;;;;;;5035231;28;20017;-80
2022/01/29 06:22:10;;;;;;;3.63;2.55;;;2.30;69.20;;;;;;5035229;28;20029;-80
2022/01/29 06:24:36;;;;;;;4.82;2.70;;;2.30;69.40;;;;;;5035170;28;20022;-80
2022/01/29 06:27:02;;;;;;;5.28;2.70;;;2.30;69.50;;;;;;5034942;28;20375;-80
2022/01/29 06:29:27;;;;;;;9.05;3.67;;;2.40;69.50;;;;;;5035084;28;20022;-80
2022/01/29 06:31:53;;;;;;;6.10;2.88;;;2.40;69.60;;;;;;5017222;28;20029;-80
2022/01/29 06:34:18;;;;;;;7.07;2.45;;;2.40;69.70;;;;;;5034960;28;20021;-80
2022/01/29 06:36:44;;;;;;;4.28;2.25;;;2.40;69.80;;;;;;5034804;28;20020;-80
2022/01/29 06:39:09;;;;;;;6.10;2.78;;;2.50;69.90;;;;;;5034940;28;20100;-79
2022/01/29 06:41:35;;;;;;;4.90;2.30;;;2.50;70.00;;;;;;5034537;28;20022;-78
2022/01/29 06:44:00;;;;;;;5.53;2.80;;;2.50;70.10;;;;;;5034664;28;20076;-79
2022/01/29 06:46:26;;;;;;;7.60;2.50;;;2.50;70.30;;;;;;5034264;28;20038;-79
2022/01/29 06:48:52;;;;;;;4.57;2.38;;;2.50;70.10;;;;;;5014831;28;20018;-79
2022/01/29 06:51:18;;;;;;;3.65;1.90;;;2.40;69.50;;;;;;5034493;28;20105;-79
2022/01/29 06:53:44;;;;;;;4.82;2.13;;;2.40;68.70;;;;;;5034403;28;20109;-78
2022/01/29 06:56:09;;;;;;;4.53;2.78;;;2.40;68.80;;;;;;5034496;28;20029;-79
2022/01/29 06:58:35;;;;;;;10.13;5.40;;;2.40;69.10;;;;;;5034593;28;20018;-79
2022/01/29 07:01:02;;;;;;;8.70;4.45;;;2.40;69.30;;;;;;5053467;28;20072;-80
2022/01/29 07:03:27;;;;;;;11.82;5.97;;;2.50;69.60;;;;;;5036456;28;20358;-79
2022/01/29 07:05:53;;;;;;;9.02;5.03;;;2.60;69.50;;;;;;5054139;28;20035;-79
2022/01/29 07:08:18;;;;;;;9.73;5.57;;;2.60;69.40;;;;;;5054887;28;20100;-80
2022/01/29 07:10:45;;;;;;;18.95;8.38;;;2.60;69.40;;;;;;5212246;23;20490;-79
2022/01/29 07:13:11;;;;;;;18.15;8.80;;;2.60;69.50;;;;;;5036362;28;20040;-80
2022/01/29 07:15:37;;;;;;;16.60;8.48;;;2.60;69.40;;;;;;5054165;28;20017;-80
2022/01/29 07:18:03;;;;;;;18.30;8.82;;;2.60;69.30;;;;;;5054173;28;20057;-80
2022/01/29 07:20:28;;;;;;;14.23;6.88;;;2.60;69.20;;;;;;5054153;28;20052;-80
2022/01/29 07:22:54;;;;;;;16.17;8.57;;;2.70;69.50;;;;;;5053789;28;20058;-81
2022/01/29 07:25:20;;;;;;;15.52;8.70;;;2.70;69.50;;;;;;5053897;28;20439;-78
2022/01/29 07:27:45;;;;;;;16.70;8.82;;;2.70;69.30;;;;;;5053920;28;20409;-84
2022/01/29 07:30:11;;;;;;;16.05;8.30;;;2.90;74.50;;;;;;5054063;28;20025;-80
2022/01/29 07:32:45;;;;;;;12.77;6.32;;;3.30;84.10;;;;;;5053797;28;20044;-82
2022/01/29 07:35:12;;;;;;;12.80;7.28;;;3.90;85.70;;;;;;5053848;28;20029;-82
2022/01/29 07:37:37;;;;;;;12.57;6.53;;;3.90;75.40;;;;;;5035711;28;20464;-80
2022/01/29 07:40:04;;;;;;;14.93;7.40;;;4.00;73.10;;;;;;5053829;28;20052;-81
2022/01/29 07:42:29;;;;;;;15.07;6.63;;;4.70;75.20;;;;;;5035827;28;20056;-81
2022/01/29 07:44:55;;;;;;;13.65;6.95;;;4.80;69.00;;;;;;5053630;28;20021;-79
2022/01/29 07:47:20;;;;;;;12.45;6.97;;;5.00;68.60;;;;;;5454663;23;20045;-80
2022/01/29 07:49:46;;;;;;;10.32;5.95;;;5.20;67.30;;;;;;5041680;28;20025;-80
2022/01/29 07:52:11;;;;;;;12.07;6.40;;;5.10;65.30;;;;;;5035843;28;20512;-81
2022/01/29 07:54:37;;;;;;;17.50;8.55;;;5.20;65.30;;;;;;5035592;28;20458;-80
2022/01/29 07:57:03;;;;;;;20.55;9.40;;;5.10;63.90;;;;;;5035204;28;20048;-80
2022/01/29 07:59:29;;;;;;;18.60;9.18;;;5.20;63.00;;;;;;5036214;28;20021;-83
2022/01/29 08:01:54;;;;;;;17.95;8.93;;;5.30;61.70;;;;;;5035557;28;20036;-82
2022/01/29 08:04:23;;;;;;;15.18;7.75;;;5.30;61.70;;;;;;5035416;28;20116;-80
2022/01/29 08:06:48;;;;;;;15.55;6.13;;;5.40;61.10;;;;;;5035209;28;20048;-80
2022/01/29 08:09:14;;;;;;;8.52;4.72;;;5.50;60.80;;;;;;5035382;28;20051;-82
2022/01/29 08:11:40;;;;;;;8.65;4.32;;;5.70;58.80;;;;;;5034808;28;20029;-81
2022/01/29 08:14:05;;;;;;;8.23;3.63;;;5.70;58.50;;;;;;5035542;28;20021;-82
2022/01/29 08:16:31;;;;;;;5.97;3.00;;;5.70;58.40;;;;;;5035275;28;20382;-82
2022/01/29 08:18:57;;;;;;;5.57;2.70;;;5.60;57.50;;;;;;5035263;28;20060;-80
2022/01/29 08:21:22;;;;;;;5.60;2.90;;;5.40;57.10;;;;;;5053280;28;20162;-80
2022/01/29 08:23:48;;;;;;;7.45;3.33;;;5.30;57.70;;;;;;5035036;28;20025;-80
2022/01/29 08:26:14;;;;;;;5.22;3.03;;;5.00;57.80;;;;;;5035421;28;20029;-80
2022/01/29 08:28:40;;;;;;;4.72;2.88;;;4.70;58.80;;;;;;5035383;28;20025;-81
2022/01/29 08:31:05;;;;;;;6.45;3.35;;;4.60;59.40;;;;;;5035154;28;20056;-80
2022/01/29 08:33:31;;;;;;;7.03;3.50;;;4.30;61.00;;;;;;5034683;28;20049;-80
2022/01/29 08:35:58;;;;;;;9.23;4.30;;;4.10;61.50;;;;;;5034568;28;20025;-79
2022/01/29 08:38:24;;;;;;;10.55;4.68;;;3.90;63.10;;;;;;5035136;28;20112;-79
2022/01/29 08:40:50;;;;;;;7.35;4.13;;;3.80;64.00;;;;;;5053189;28;20165;-79
2022/01/29 08:43:17;;;;;;;7.60;3.20;;;3.80;64.40;;;;;;5035087;28;20474;-80
2022/01/29 08:45:43;;;;;;;4.47;2.22;;;3.90;64.50;;;;;;5018538;28;20041;-79
2022/01/29 08:48:09;;;;;;;6.05;2.90;;;3.90;64.80;;;;;;5007029;28;20119;-79
2022/01/29 08:50:34;;;;;;;6.43;3.08;;;3.90;65.30;;;;;;5015382;28;20022;-80
2022/01/29 08:55:38;;;;;;;8.68;4.45;;;4.00;66.20;;;;;;5381723;23;20045;-78
2022/01/29 08:58:05;;;;;;;6.97;3.50;;;4.10;66.50;;;;;;5031854;28;20036;-80
2022/01/29 09:00:31;;;;;;;8.13;3.75;;;4.10;66.50;;;;;;5041220;28;20029;-81
2022/01/29 09:02:56;;;;;;;7.45;3.65;;;4.10;66.10;;;;;;5053515;28;20096;-81
2022/01/29 09:05:22;;;;;;;4.90;3.30;;;4.10;65.50;;;;;;5055334;28;20029;-80
2022/01/29 09:07:48;;;;;;;5.38;3.20;;;4.00;65.30;;;;;;5055698;28;20045;-81
2022/01/29 09:10:14;;;;;;;9.60;4.25;;;4.20;65.50;;;;;;5054882;28;20036;-81
2022/01/29 09:12:40;;;;;;;5.90;3.22;;;4.30;65.50;;;;;;5039921;28;20030;-80
2022/01/29 09:15:06;;;;;;;6.43;3.30;;;4.50;65.40;;;;;;5034156;28;20489;-80
2022/01/29 09:17:32;;;;;;;6.07;3.88;;;4.80;64.60;;;;;;5032499;28;20021;-80
2022/01/29 09:19:57;;;;;;;5.50;3.10;;;5.00;63.50;;;;;;5032289;28;20120;-80
2022/01/29 09:22:23;;;;;;;9.32;3.42;;;5.10;61.10;;;;;;5032380;28;20022;-79
2022/01/29 09:24:48;;;;;;;5.10;2.97;;;5.20;60.40;;;;;;5035617;28;20113;-79
2022/01/29 09:32:29;;;;;;;5.20;2.80;;;5.10;55.50;;;;;;5166860;23;20061;-79
2022/01/29 09:34:54;;;;;;;3.47;2.40;;;5.10;56.50;;;;;;5034285;28;20474;-78
2022/01/29 09:39:55;;;;;;;5.75;2.22;;;5.20;51.50;;;;;;5061125;23;20068;-80
2022/01/29 09:42:21;;;;;;;4.53;1.90;;;5.20;51.70;;;;;;5017879;28;20029;-79
2022/01/29 09:44:52;;;;;;;5.15;1.83;;;5.10;52.10;;;;;;5017790;28;20335;-80
2022/01/29 09:47:21;;;;;;;5.43;2.17;;;5.00;51.50;;;;;;5035263;28;20501;-80
2022/01/29 09:49:47;;;;;;;4.93;1.80;;;4.90;51.00;;;;;;5017493;28;20371;-81
2022/01/29 09:52:12;;;;;;;4.28;2.08;;;4.80;51.70;;;;;;5035641;28;20037;-80
2022/01/29 09:54:39;;;;;;;5.18;1.92;;;4.70;52.00;;;;;;5017874;28;20296;-81
2022/01/29 09:57:04;;;;;;;6.63;2.63;;;4.70;51.10;;;;;;5035538;28;20087;-79
2022/01/29 09:59:30;;;;;;;3.28;1.90;;;4.80;51.30;;;;;;5035507;28;20022;-79
2022/01/29 10:01:56;;;;;;;6.15;3.40;;;5.20;49.70;;;;;;5017464;28;20025;-77
2022/01/29 10:04:24;;;;;;;5.10;1.65;;;5.70;48.70;;;;;;5035290;28;20022;-79
2022/01/29 10:07:13;;;;;;;5.03;1.90;;;6.30;48.10;;;;;;5035010;28;20501;-79
2022/01/29 10:09:39;;;;;;;2.25;1.30;;;6.80;47.00;;;;;;5035085;28;20018;-79
2022/01/29 10:12:27;;;;;;;6.32;1.67;;;7.10;45.30;;;;;;5031994;28;20028;-80
2022/01/29 10:14:57;;;;;;;3.65;1.55;;;7.50;45.60;;;;;;5017589;28;20053;-81
2022/01/29 10:17:46;;;;;;;3.60;1.92;;;8.20;52.40;;;;;;4997288;28;20029;-83
2022/01/29 10:20:26;;;;;;;2.45;1.40;;;8.90;49.20;;;;;;4997720;28;20065;-87
2022/01/29 10:22:57;;;;;;;1.90;1.13;;;9.00;44.70;;;;;;5015025;28;20041;-78
2022/01/29 10:25:30;;;;;;;3.33;0.65;;;9.00;43.40;;;;;;5015251;28;20432;-78
2022/01/29 10:28:11;;;;;;;3.15;1.45;;;8.90;40.30;;;;;;4997489;28;20095;-79
2022/01/29 10:30:49;;;;;;;2.08;1.17;;;9.10;39.90;;;;;;5015242;28;20029;-80
2022/01/29 10:33:21;;;;;;;1.50;0.60;;;9.40;39.10;;;;;;5015136;28;20034;-79
2022/01/29 10:35:53;;;;;;;4.65;1.10;;;9.70;38.10;;;;;;5014624;28;20018;-79
2022/01/29 10:38:25;;;;;;;2.00;1.15;;;9.60;39.40;;;;;;5003106;28;20141;-80
2022/01/29 10:41:20;;;;;;;5.60;1.80;;;9.40;41.10;;;;;;5034529;28;20024;-80
2022/01/29 10:44:11;;;;;;;5.88;1.50;;;9.40;41.20;;;;;;5011397;28;20132;-82
2022/01/29 10:46:40;;;;;;;1.60;0.88;;;9.70;44.20;;;;;;5034563;28;20025;-83
2022/01/29 10:49:06;;;;;;;2.05;0.82;;;9.80;41.40;;;;;;5034445;28;20021;-85
2022/01/29 10:51:34;;;;;;;6.53;0.90;;;9.90;41.50;;;;;;5017024;28;20480;-81
2022/01/29 10:54:17;;;;;;;3.63;1.00;;;10.00;41.00;;;;;;5016659;28;20037;-83
2022/01/29 10:56:57;;;;;;;2.35;0.90;;;10.00;42.30;;;;;;5017009;28;20037;-80
2022/01/29 10:59:23;;;;;;;3.90;0.77;;;9.80;44.10;;;;;;5034402;28;20105;-77
2022/01/29 11:02:00;;;;;;;3.40;1.92;;;9.60;45.70;;;;;;5034427;28;20021;-81
2022/01/29 11:04:28;;;;;;;0.82;0.40;;;9.40;48.20;;;;;;5016501;28;20386;-80
2022/01/29 11:06:56;;;;;;;2.72;0.60;;;9.30;51.50;;;;;;5033957;28;20070;-78
2022/01/29 11:09:22;;;;;;;2.08;0.60;;;9.10;52.20;;;;;;5033834;28;20021;-79
2022/01/29 11:11:49;;;;;;;2.13;0.40;;;9.20;51.40;;;;;;5016151;28;20055;-78
2022/01/29 11:14:18;;;;;;;1.48;0.82;;;9.10;52.60;;;;;;5033993;28;20128;-80
2022/01/29 11:16:45;;;;;;;2.30;0.63;;;9.10;53.20;;;;;;5015950;28;20024;-79
2022/01/29 11:19:11;;;;;;;2.15;0.70;;;8.70;52.20;;;;;;5033762;28;20470;-78
2022/01/29 11:21:40;;;;;;;1.33;0.60;;;8.40;53.50;;;;;;5033719;28;20040;-79
2022/01/29 11:24:09;;;;;;;2.83;1.30;;;8.10;53.90;;;;;;5033844;28;20021;-79
2022/01/29 11:26:36;;;;;;;0.82;0.57;;;8.00;55.30;;;;;;5033507;28;20073;-79
2022/01/29 11:29:23;;;;;;;1.88;0.82;;;7.80;56.20;;;;;;5033815;28;20104;-79
2022/01/29 11:32:21;;;;;;;1.75;0.93;;;7.60;55.40;;;;;;5033549;28;20478;-79
2022/01/29 11:35:15;;;;;;;8.60;2.00;;;7.60;55.70;;;;;;5033648;28;20031;-80
2022/01/29 11:37:43;;;;;;;2.15;1.15;;;7.40;55.90;;;;;;5009838;28;20029;-84
2022/01/29 11:40:14;;;;;;;2.03;1.20;;;7.50;55.20;;;;;;5033810;28;20524;-84
2022/01/29 11:43:03;;;;;;;1.35;0.88;;;7.50;54.20;;;;;;5033543;28;20022;-83
2022/01/29 11:45:54;;;;;;;4.38;1.42;;;7.40;53.80;;;;;;5033056;28;20026;-84
2022/01/29 11:48:30;;;;;;;4.15;1.33;;;7.40;53.80;;;;;;5033542;28;20166;-84
2022/01/29 11:51:02;;;;;;;2.97;1.10;;;7.50;54.20;;;;;;5033294;28;20022;-83
2022/01/29 11:53:50;;;;;;;2.70;0.98;;;7.50;54.10;;;;;;5033511;28;20025;-83
2022/01/29 11:56:30;;;;;;;2.65;1.40;;;7.50;54.10;;;;;;5033224;28;20017;-84
2022/01/29 11:59:26;;;;;;;3.88;0.90;;;7.50;54.90;;;;;;5034076;28;20079;-83
2022/01/29 12:01:53;;;;;;;;;;;7.20;54.90;;;;;;5029645;28;20124;-82
2022/01/29 12:04:24;;;;;;;1.85;1.33;;;7.10;53.80;;;;;;5026116;28;19912;-84
2022/01/29 12:07:18;;;;;;;3.55;1.42;;;7.00;53.90;;;;;;5057469;28;20048;-81
2022/01/29 12:09:49;;;;;;;2.38;1.42;;;7.10;54.00;;;;;;5054307;28;20064;-81
2022/01/29 12:12:24;;;;;;;1.88;1.00;;;7.00;53.70;;;;;;5043334;28;20486;-83
2022/01/29 12:14:52;;;;;;;3.55;1.27;;;6.90;54.10;;;;;;5033692;28;20025;-83
2022/01/29 12:17:49;;;;;;;2.30;1.40;;;6.90;53.90;;;;;;5033707;28;20462;-81
2022/01/29 12:20:23;;;;;;;1.95;1.60;;;6.90;53.70;;;;;;5033845;28;20188;-83
2022/01/29 12:22:51;;;;;;;2.00;1.48;;;6.90;53.80;;;;;;5033709;28;20021;-82
2022/01/29 12:25:19;;;;;;;4.70;1.38;;;6.90;53.50;;;;;;5033863;28;20385;-83
2022/01/29 12:27:55;;;;;;;3.42;1.60;;;6.80;53.50;;;;;;5035123;28;20033;-84
2022/01/29 12:30:40;;;;;;;6.10;1.40;;;6.80;53.50;;;;;;5034068;28;20520;-85
2022/01/29 12:33:07;;;;;;;4.07;2.10;;;6.80;54.90;;;;;;5033150;28;20030;-84
2022/01/29 12:35:46;;;;;;;4.05;2.33;;;6.80;54.50;;;;;;5033226;28;20474;-83
2022/01/29 12:38:14;;;;;;;6.35;2.00;;;7.00;54.20;;;;;;5033440;28;20052;-83
2022/01/29 12:40:49;;;;;;;3.05;1.95;;;7.00;54.70;;;;;;5035421;28;20059;-81
2022/01/29 12:43:36;;;;;;;5.32;2.10;;;7.10;55.00;;;;;;5034968;28;20018;-84
2022/01/29 12:46:19;;;;;;;3.85;2.15;;;7.20;55.30;;;;;;5034480;28;20124;-84
2022/01/29 12:48:59;;;;;;;5.00;2.17;;;7.30;55.00;;;;;;5032850;28;20026;-84
2022/01/29 12:51:24;;;;;;;3.08;2.38;;;7.40;55.00;;;;;;5033030;28;20022;-84
2022/01/29 12:53:58;;;;;;;4.43;2.45;;;7.40;55.80;;;;;;5014679;28;20032;-83
2022/01/29 12:56:35;;;;;;;2.95;2.10;;;7.40;56.70;;;;;;5032339;28;20017;-83
2022/01/29 12:59:02;;;;;;;6.10;3.30;;;7.40;56.80;;;;;;5036378;28;20040;-83
2022/01/29 13:01:28;;;;;;;7.65;2.90;;;7.60;56.50;;;;;;5036508;28;20037;-84
2022/01/29 13:04:05;;;;;;;6.38;1.73;;;7.70;57.10;;;;;;5036484;28;20025;-84
2022/01/29 13:06:31;;;;;;;1.75;1.17;;;7.70;59.80;;;;;;5037210;28;20091;-83
2022/01/29 13:09:18;;;;;;;3.08;1.45;;;7.80;59.50;;;;;;5036886;28;20377;-83
2022/01/29 13:11:45;;;;;;;2.10;1.20;;;8.00;59.00;;;;;;5036882;28;20079;-82
2022/01/29 13:16:51;;;;;;;2.95;1.77;;;8.00;59.20;;;;;;4870600;26;20056;-83
2022/01/29 13:19:17;;;;;;;2.20;1.45;;;7.90;60.30;;;;;;5035028;28;20415;-83
2022/01/29 13:21:43;;;;;;;3.42;1.80;;;7.90;60.50;;;;;;5036072;28;20104;-84
2022/01/29 13:24:24;;;;;;;3.15;1.77;;;7.90;59.90;;;;;;5036290;28;20025;-83
2022/01/29 13:27:09;;;;;;;1.85;1.52;;;7.80;59.90;;;;;;5038380;28;20041;-85
2022/01/29 13:30:00;;;;;;;2.15;1.33;;;7.70;61.10;;;;;;5038586;28;20028;-84
2022/01/29 13:32:34;;;;;;;3.13;2.00;;;7.60;62.00;;;;;;5044751;28;20028;-84
2022/01/29 13:35:17;;;;;;;2.33;1.67;;;7.60;61.60;;;;;;5056772;28;20025;-84
2022/01/29 13:37:43;;;;;;;4.40;2.28;;;7.50;63.90;;;;;;5056266;28;20032;-81
2022/01/29 13:40:15;;;;;;;3.80;2.08;;;7.50;63.30;;;;;;5038134;28;20021;-83
2022/01/29 13:42:59;;;;;;;4.15;1.80;;;7.60;63.40;;;;;;5055853;28;20021;-83
2022/01/29 13:45:25;;;;;;;2.70;1.42;;;7.60;65.20;;;;;;5056176;28;20017;-82
2022/01/29 13:48:13;;;;;;;1.67;1.00;;;7.60;67.70;;;;;;5055762;28;20036;-84
2022/01/29 13:50:47;;;;;;;1.38;0.80;;;7.50;69.20;;;;;;5056238;28;20036;-83
2022/01/29 13:53:15;;;;;;;1.60;0.80;;;7.60;69.50;;;;;;5037953;28;20544;-82
2022/01/29 13:56:04;;;;;;;5.22;1.20;;;7.50;70.10;;;;;;5056010;28;20025;-83
2022/01/29 13:58:51;;;;;;;1.77;0.70;;;7.50;70.20;;;;;;5055999;28;20029;-83
2022/01/29 14:01:33;;;;;;;2.30;0.80;;;7.40;70.70;;;;;;5055608;28;20024;-83
2022/01/29 14:03:59;;;;;;;1.65;1.00;;;7.50;70.50;;;;;;5056084;28;20048;-83
2022/01/29 14:06:39;;;;;;;1.30;0.80;;;7.50;70.10;;;;;;5055716;28;20501;-82
2022/01/29 14:09:13;;;;;;;3.03;1.30;;;7.50;70.00;;;;;;5036955;28;20070;-83
2022/01/29 14:12:12;;;;;;;2.83;1.15;;;7.50;69.60;;;;;;5055684;28;20525;-82
2022/01/29 14:14:45;;;;;;;1.30;1.10;;;7.50;69.50;;;;;;5011393;28;20040;-84
2022/01/29 14:17:15;;;;;;;1.08;0.90;;;7.50;69.30;;;;;;5055688;28;20112;-84
2022/01/29 14:19:42;;;;;;;2.33;1.42;;;7.40;69.70;;;;;;5055525;28;20047;-81
2022/01/29 14:22:08;;;;;;;2.30;1.10;;;7.40;69.60;;;;;;5038024;28;20029;-83
2022/01/29 14:24:36;;;;;;;1.80;1.33;;;7.40;69.60;;;;;;5057766;28;20021;-82
2022/01/29 14:27:01;;;;;;;6.45;1.33;;;7.30;69.70;;;;;;5065491;28;20021;-83
2022/01/29 14:29:29;;;;;;;2.88;1.52;;;7.30;69.90;;;;;;5074177;28;20028;-83
2022/01/29 14:31:55;;;;;;;2.95;1.38;;;7.20;70.30;;;;;;5074893;28;20028;-82
2022/01/29 14:34:21;;;;;;;1.65;1.17;;;7.20;69.80;;;;;;5063851;28;20025;-83
2022/01/29 14:36:47;;;;;;;2.42;1.50;;;7.10;71.00;;;;;;5055557;28;20092;-84
2022/01/29 14:39:15;;;;;;;1.45;1.05;;;7.00;71.40;;;;;;5055419;28;20059;-82
2022/01/29 14:41:42;;;;;;;1.73;1.25;;;7.00;72.50;;;;;;5055067;28;20021;-82
2022/01/29 14:44:07;;;;;;;1.23;0.50;;;7.00;73.20;;;;;;5054918;28;20126;-82
2022/01/29 14:46:33;;;;;;;1.52;0.93;;;6.90;74.30;;;;;;5054594;28;20477;-84
2022/01/29 14:49:00;;;;;;;2.22;1.40;;;6.80;74.60;;;;;;5054451;28;20021;-83
2022/01/29 14:51:34;;;;;;;1.73;1.00;;;6.80;75.30;;;;;;5054859;28;20090;-84
2022/01/29 14:54:00;;;;;;;1.15;0.35;;;6.80;75.20;;;;;;5054618;28;20013;-83
2022/01/29 14:56:26;;;;;;;0.98;0.70;;;6.70;75.40;;;;;;5037138;28;20551;-84
2022/01/29 14:58:51;;;;;;;1.17;0.60;;;6.70;75.80;;;;;;5055114;28;20067;-84
2022/01/29 15:01:18;;;;;;;1.95;1.15;;;6.70;75.60;;;;;;5037024;28;20473;-84
2022/01/29 15:03:43;;;;;;;0.88;0.73;;;6.70;75.70;;;;;;5054663;28;20021;-84
2022/01/29 15:06:09;;;;;;;0.60;0.60;;;6.70;75.90;;;;;;5055103;28;20094;-83
2022/01/29 15:08:36;;;;;;;1.20;0.57;;;6.70;76.10;;;;;;5055430;28;20025;-83
2022/01/29 15:11:03;;;;;;;0.57;0.57;;;6.60;75.90;;;;;;5055264;28;20032;-83
2022/01/29 15:13:29;;;;;;;2.03;0.57;;;6.60;76.10;;;;;;5037542;28;20155;-82